sensor_id;sensor_type;location;lat;lon;timestamp;P1;durP1;ratioP1;P2;durP2;ratioP2
1699;SDS011;847;48.058;7.810;2022-12-10T00:01:30;30.33;;;22.17;;
1699;SDS011;847;48.058;7.810;2022-12-10T00:03:58;32.77;;;21.57;;
1699;SDS011;847;48.058;7.810;2022-12-10T00:06:27;32.87;;;22.60;;
1699;SDS011;847;48.058;7.810;2022-12-10T00:08:57;32.92;;;22.52;;
1699;SDS011;847;48.058;7.810;2022-12-10T00:11:26;31.13;;;22.23;;
1699;SDS011;847;48.058;7.810;2022-12-10T00:13:53;32.53;;;23.30;;
1699;SDS011;847;48.058;7.810;2022-12-10T00:16:21;31.83;;;23.13;;
1699;SDS011;847;48.058;7.810;2022-12-10T00:18:49;33.90;;;22.73;;
1699;SDS011;847;48.058;7.810;2022-12-10T00:21:19;34.63;;;22.90;;
1699;SDS011;847;48.058;7.810;2022-12-10T00:23:46;28.92;;;21.88;;
1699;SDS011;847;48.058;7.810;2022-12-10T00:26:14;32.50;;;22.77;;
1699;SDS011;847;48.058;7.810;2022-12-10T00:28:43;30.75;;;23.02;;
1699;SDS011;847;48.058;7.810;2022-12-10T00:31:12;33.03;;;21.87;;
1699;SDS011;847;48.058;7.810;2022-12-10T00:33:40;30.93;;;23.00;;
1699;SDS011;847;48.058;7.810;2022-12-10T00:36:09;32.10;;;22.42;;
1699;SDS011;847;48.058;7.810;2022-12-10T00:38:37;33.20;;;22.83;;
1699;SDS011;847;48.058;7.810;2022-12-10T00:41:05;33.17;;;21.80;;
1699;SDS011;847;48.058;7.810;2022-12-10T00:43:32;34.03;;;21.63;;
1699;SDS011;847;48.058;7.810;2022-12-10T00:46:00;32.63;;;22.60;;
1699;SDS011;847;48.058;7.810;2022-12-10T00:48:27;33.80;;;21.93;;
1699;SDS011;847;48.058;7.810;2022-12-10T00:50:55;29.80;;;21.90;;
1699;SDS011;847;48.058;7.810;2022-12-10T00:53:23;26.13;;;21.17;;
1699;SDS011;847;48.058;7.810;2022-12-10T00:55:50;35.90;;;23.43;;
1699;SDS011;847;48.058;7.810;2022-12-10T00:58:17;28.63;;;21.27;;
1699;SDS011;847;48.058;7.810;2022-12-10T01:00:44;26.60;;;20.73;;
1699;SDS011;847;48.058;7.810;2022-12-10T01:03:12;30.50;;;23.57;;
1699;SDS011;847;48.058;7.810;2022-12-10T01:05:39;29.45;;;21.50;;
1699;SDS011;847;48.058;7.810;2022-12-10T01:08:06;27.13;;;20.23;;
1699;SDS011;847;48.058;7.810;2022-12-10T01:10:33;32.67;;;22.70;;
1699;SDS011;847;48.058;7.810;2022-12-10T01:13:00;30.17;;;22.10;;
1699;SDS011;847;48.058;7.810;2022-12-10T01:15:27;32.67;;;22.90;;
1699;SDS011;847;48.058;7.810;2022-12-10T01:17:54;31.73;;;22.70;;
1699;SDS011;847;48.058;7.810;2022-12-10T01:20:22;33.50;;;21.87;;
1699;SDS011;847;48.058;7.810;2022-12-10T01:22:49;31.30;;;22.90;;
1699;SDS011;847;48.058;7.810;2022-12-10T01:25:16;31.90;;;23.53;;
1699;SDS011;847;48.058;7.810;2022-12-10T01:27:42;31.67;;;22.77;;
1699;SDS011;847;48.058;7.810;2022-12-10T01:30:10;31.97;;;21.73;;
1699;SDS011;847;48.058;7.810;2022-12-10T01:32:37;33.60;;;22.80;;
1699;SDS011;847;48.058;7.810;2022-12-10T01:35:04;32.42;;;23.45;;
1699;SDS011;847;48.058;7.810;2022-12-10T01:37:32;37.17;;;24.10;;
1699;SDS011;847;48.058;7.810;2022-12-10T01:39:59;33.93;;;23.43;;
1699;SDS011;847;48.058;7.810;2022-12-10T01:42:25;36.27;;;23.37;;
1699;SDS011;847;48.058;7.810;2022-12-10T01:44:56;37.97;;;24.70;;
1699;SDS011;847;48.058;7.810;2022-12-10T01:47:27;33.10;;;23.50;;
1699;SDS011;847;48.058;7.810;2022-12-10T01:49:54;32.83;;;24.17;;
1699;SDS011;847;48.058;7.810;2022-12-10T01:52:23;29.47;;;23.40;;
1699;SDS011;847;48.058;7.810;2022-12-10T01:54:51;29.60;;;22.93;;
1699;SDS011;847;48.058;7.810;2022-12-10T01:57:18;36.40;;;24.25;;
1699;SDS011;847;48.058;7.810;2022-12-10T01:59:48;32.00;;;23.27;;
1699;SDS011;847;48.058;7.810;2022-12-10T02:02:19;38.70;;;24.40;;
1699;SDS011;847;48.058;7.810;2022-12-10T02:04:53;34.40;;;22.37;;
1699;SDS011;847;48.058;7.810;2022-12-10T02:07:35;31.07;;;22.37;;
1699;SDS011;847;48.058;7.810;2022-12-10T02:10:13;33.03;;;22.10;;
1699;SDS011;847;48.058;7.810;2022-12-10T02:12:48;30.50;;;23.00;;
1699;SDS011;847;48.058;7.810;2022-12-10T02:15:21;35.20;;;24.03;;
1699;SDS011;847;48.058;7.810;2022-12-10T02:17:52;28.77;;;22.80;;
1699;SDS011;847;48.058;7.810;2022-12-10T02:20:22;31.50;;;23.33;;
1699;SDS011;847;48.058;7.810;2022-12-10T02:22:55;34.20;;;23.90;;
1699;SDS011;847;48.058;7.810;2022-12-10T02:25:29;31.00;;;21.33;;
1699;SDS011;847;48.058;7.810;2022-12-10T02:28:05;33.33;;;23.33;;
1699;SDS011;847;48.058;7.810;2022-12-10T02:30:39;35.80;;;22.80;;
1699;SDS011;847;48.058;7.810;2022-12-10T02:33:08;30.80;;;21.90;;
1699;SDS011;847;48.058;7.810;2022-12-10T02:35:36;32.47;;;22.10;;
1699;SDS011;847;48.058;7.810;2022-12-10T02:38:06;35.37;;;23.67;;
1699;SDS011;847;48.058;7.810;2022-12-10T02:40:38;32.80;;;22.53;;
1699;SDS011;847;48.058;7.810;2022-12-10T02:43:09;30.20;;;22.30;;
1699;SDS011;847;48.058;7.810;2022-12-10T02:45:40;34.77;;;23.67;;
1699;SDS011;847;48.058;7.810;2022-12-10T02:48:09;34.37;;;22.57;;
1699;SDS011;847;48.058;7.810;2022-12-10T02:50:37;33.03;;;21.80;;
1699;SDS011;847;48.058;7.810;2022-12-10T02:53:03;28.50;;;20.97;;
1699;SDS011;847;48.058;7.810;2022-12-10T02:55:32;30.63;;;21.37;;
1699;SDS011;847;48.058;7.810;2022-12-10T02:58:12;27.83;;;22.10;;
1699;SDS011;847;48.058;7.810;2022-12-10T03:00:50;27.17;;;20.30;;
1699;SDS011;847;48.058;7.810;2022-12-10T03:03:26;32.50;;;22.02;;
1699;SDS011;847;48.058;7.810;2022-12-10T03:06:03;33.70;;;22.40;;
1699;SDS011;847;48.058;7.810;2022-12-10T03:08:37;31.80;;;23.30;;
1699;SDS011;847;48.058;7.810;2022-12-10T03:11:09;34.13;;;23.17;;
1699;SDS011;847;48.058;7.810;2022-12-10T03:13:38;29.35;;;21.65;;
1699;SDS011;847;48.058;7.810;2022-12-10T03:16:10;29.53;;;21.47;;
1699;SDS011;847;48.058;7.810;2022-12-10T03:18:39;28.60;;;21.50;;
1699;SDS011;847;48.058;7.810;2022-12-10T03:21:06;42.97;;;22.88;;
1699;SDS011;847;48.058;7.810;2022-12-10T03:23:35;32.03;;;22.83;;
1699;SDS011;847;48.058;7.810;2022-12-10T03:26:05;33.30;;;21.93;;
1699;SDS011;847;48.058;7.810;2022-12-10T03:28:34;33.23;;;22.80;;
1699;SDS011;847;48.058;7.810;2022-12-10T03:31:04;31.60;;;21.67;;
1699;SDS011;847;48.058;7.810;2022-12-10T03:33:35;32.00;;;23.10;;
1699;SDS011;847;48.058;7.810;2022-12-10T03:36:03;30.30;;;21.63;;
1699;SDS011;847;48.058;7.810;2022-12-10T03:38:31;37.33;;;23.10;;
1699;SDS011;847;48.058;7.810;2022-12-10T03:40:58;31.80;;;21.43;;
1699;SDS011;847;48.058;7.810;2022-12-10T03:43:25;30.27;;;20.95;;
1699;SDS011;847;48.058;7.810;2022-12-10T03:45:51;30.13;;;20.50;;
1699;SDS011;847;48.058;7.810;2022-12-10T03:48:18;28.33;;;19.92;;
1699;SDS011;847;48.058;7.810;2022-12-10T03:50:46;36.90;;;22.13;;
1699;SDS011;847;48.058;7.810;2022-12-10T03:53:13;28.90;;;20.47;;
1699;SDS011;847;48.058;7.810;2022-12-10T03:55:40;28.03;;;19.27;;
1699;SDS011;847;48.058;7.810;2022-12-10T03:58:07;26.27;;;19.10;;
1699;SDS011;847;48.058;7.810;2022-12-10T04:00:33;28.37;;;20.73;;
1699;SDS011;847;48.058;7.810;2022-12-10T04:03:00;34.00;;;21.70;;
1699;SDS011;847;48.058;7.810;2022-12-10T04:05:27;28.47;;;20.23;;
1699;SDS011;847;48.058;7.810;2022-12-10T04:07:55;25.10;;;19.53;;
1699;SDS011;847;48.058;7.810;2022-12-10T04:10:22;28.93;;;20.00;;
1699;SDS011;847;48.058;7.810;2022-12-10T04:12:49;35.10;;;22.10;;
1699;SDS011;847;48.058;7.810;2022-12-10T04:15:37;32.60;;;20.90;;
1699;SDS011;847;48.058;7.810;2022-12-10T04:18:22;31.83;;;22.63;;
1699;SDS011;847;48.058;7.810;2022-12-10T04:20:49;30.75;;;21.77;;
1699;SDS011;847;48.058;7.810;2022-12-10T04:23:31;28.90;;;20.03;;
1699;SDS011;847;48.058;7.810;2022-12-10T04:26:15;29.17;;;20.27;;
1699;SDS011;847;48.058;7.810;2022-12-10T04:29:00;28.00;;;20.47;;
1699;SDS011;847;48.058;7.810;2022-12-10T04:31:26;31.30;;;21.33;;
1699;SDS011;847;48.058;7.810;2022-12-10T04:33:53;29.40;;;21.20;;
1699;SDS011;847;48.058;7.810;2022-12-10T04:36:20;31.80;;;22.37;;
1699;SDS011;847;48.058;7.810;2022-12-10T04:38:48;33.10;;;19.90;;
1699;SDS011;847;48.058;7.810;2022-12-10T04:41:15;35.50;;;22.27;;
1699;SDS011;847;48.058;7.810;2022-12-10T04:43:41;33.47;;;21.50;;
1699;SDS011;847;48.058;7.810;2022-12-10T04:46:08;30.33;;;20.47;;
1699;SDS011;847;48.058;7.810;2022-12-10T04:48:35;31.30;;;21.13;;
1699;SDS011;847;48.058;7.810;2022-12-10T04:51:02;36.20;;;22.70;;
1699;SDS011;847;48.058;7.810;2022-12-10T04:53:30;30.73;;;21.23;;
1699;SDS011;847;48.058;7.810;2022-12-10T04:55:58;29.43;;;20.70;;
1699;SDS011;847;48.058;7.810;2022-12-10T04:58:26;31.47;;;22.80;;
1699;SDS011;847;48.058;7.810;2022-12-10T05:01:00;30.45;;;20.40;;
1699;SDS011;847;48.058;7.810;2022-12-10T05:03:27;28.00;;;20.03;;
1699;SDS011;847;48.058;7.810;2022-12-10T05:05:54;30.27;;;20.37;;
1699;SDS011;847;48.058;7.810;2022-12-10T05:08:20;32.70;;;22.30;;
1699;SDS011;847;48.058;7.810;2022-12-10T05:10:47;30.07;;;19.80;;
1699;SDS011;847;48.058;7.810;2022-12-10T05:13:15;30.60;;;21.60;;
1699;SDS011;847;48.058;7.810;2022-12-10T05:15:42;30.83;;;18.50;;
1699;SDS011;847;48.058;7.810;2022-12-10T05:18:09;30.53;;;20.07;;
1699;SDS011;847;48.058;7.810;2022-12-10T05:20:36;28.52;;;21.38;;
1699;SDS011;847;48.058;7.810;2022-12-10T05:23:02;32.53;;;20.20;;
1699;SDS011;847;48.058;7.810;2022-12-10T05:25:47;31.00;;;20.40;;
1699;SDS011;847;48.058;7.810;2022-12-10T05:28:20;28.63;;;18.60;;
1699;SDS011;847;48.058;7.810;2022-12-10T05:30:47;29.65;;;19.90;;
1699;SDS011;847;48.058;7.810;2022-12-10T05:33:13;33.30;;;19.23;;
1699;SDS011;847;48.058;7.810;2022-12-10T05:35:40;32.97;;;21.67;;
1699;SDS011;847;48.058;7.810;2022-12-10T05:38:07;31.92;;;20.35;;
1699;SDS011;847;48.058;7.810;2022-12-10T05:40:35;28.90;;;21.10;;
1699;SDS011;847;48.058;7.810;2022-12-10T05:43:02;34.27;;;21.10;;
1699;SDS011;847;48.058;7.810;2022-12-10T05:45:31;31.00;;;21.60;;
1699;SDS011;847;48.058;7.810;2022-12-10T05:47:58;34.40;;;21.43;;
1699;SDS011;847;48.058;7.810;2022-12-10T05:50:25;31.43;;;20.90;;
1699;SDS011;847;48.058;7.810;2022-12-10T05:52:53;31.40;;;21.13;;
1699;SDS011;847;48.058;7.810;2022-12-10T05:55:19;33.90;;;20.53;;
1699;SDS011;847;48.058;7.810;2022-12-10T05:57:46;33.20;;;23.17;;
1699;SDS011;847;48.058;7.810;2022-12-10T06:00:13;39.13;;;23.83;;
1699;SDS011;847;48.058;7.810;2022-12-10T06:02:42;31.63;;;22.07;;
1699;SDS011;847;48.058;7.810;2022-12-10T06:05:09;37.03;;;21.20;;
1699;SDS011;847;48.058;7.810;2022-12-10T06:07:35;34.20;;;22.43;;
1699;SDS011;847;48.058;7.810;2022-12-10T06:10:02;41.07;;;24.80;;
1699;SDS011;847;48.058;7.810;2022-12-10T06:12:29;39.10;;;23.60;;
1699;SDS011;847;48.058;7.810;2022-12-10T06:14:56;31.10;;;20.17;;
1699;SDS011;847;48.058;7.810;2022-12-10T06:17:23;34.50;;;21.20;;
1699;SDS011;847;48.058;7.810;2022-12-10T06:19:51;38.80;;;22.60;;
1699;SDS011;847;48.058;7.810;2022-12-10T06:22:18;34.50;;;22.07;;
1699;SDS011;847;48.058;7.810;2022-12-10T06:24:45;40.05;;;23.48;;
1699;SDS011;847;48.058;7.810;2022-12-10T06:27:11;37.67;;;23.75;;
1699;SDS011;847;48.058;7.810;2022-12-10T06:29:38;34.92;;;21.40;;
1699;SDS011;847;48.058;7.810;2022-12-10T06:32:05;37.85;;;22.33;;
1699;SDS011;847;48.058;7.810;2022-12-10T06:34:32;37.20;;;22.00;;
1699;SDS011;847;48.058;7.810;2022-12-10T06:37:00;38.90;;;23.03;;
1699;SDS011;847;48.058;7.810;2022-12-10T06:39:27;39.67;;;22.80;;
1699;SDS011;847;48.058;7.810;2022-12-10T06:41:54;37.30;;;22.17;;
1699;SDS011;847;48.058;7.810;2022-12-10T06:44:21;37.47;;;21.60;;
1699;SDS011;847;48.058;7.810;2022-12-10T06:46:48;41.10;;;22.40;;
1699;SDS011;847;48.058;7.810;2022-12-10T06:49:14;37.90;;;22.10;;
1699;SDS011;847;48.058;7.810;2022-12-10T06:51:41;32.58;;;22.27;;
1699;SDS011;847;48.058;7.810;2022-12-10T06:54:09;40.75;;;23.20;;
1699;SDS011;847;48.058;7.810;2022-12-10T06:56:36;37.20;;;22.43;;
1699;SDS011;847;48.058;7.810;2022-12-10T06:59:03;34.07;;;22.17;;
1699;SDS011;847;48.058;7.810;2022-12-10T07:01:31;37.70;;;23.67;;
1699;SDS011;847;48.058;7.810;2022-12-10T07:03:58;36.20;;;21.03;;
1699;SDS011;847;48.058;7.810;2022-12-10T07:06:25;41.90;;;23.43;;
1699;SDS011;847;48.058;7.810;2022-12-10T07:08:53;39.20;;;21.77;;
1699;SDS011;847;48.058;7.810;2022-12-10T07:11:22;38.67;;;23.27;;
1699;SDS011;847;48.058;7.810;2022-12-10T07:13:49;36.87;;;23.10;;
1699;SDS011;847;48.058;7.810;2022-12-10T07:16:17;39.40;;;22.93;;
1699;SDS011;847;48.058;7.810;2022-12-10T07:18:45;39.40;;;21.30;;
1699;SDS011;847;48.058;7.810;2022-12-10T07:21:14;40.77;;;22.63;;
1699;SDS011;847;48.058;7.810;2022-12-10T07:23:41;45.40;;;23.83;;
1699;SDS011;847;48.058;7.810;2022-12-10T07:26:08;46.30;;;24.27;;
1699;SDS011;847;48.058;7.810;2022-12-10T07:28:36;40.13;;;22.57;;
1699;SDS011;847;48.058;7.810;2022-12-10T07:31:03;42.40;;;23.93;;
1699;SDS011;847;48.058;7.810;2022-12-10T07:33:32;43.80;;;22.80;;
1699;SDS011;847;48.058;7.810;2022-12-10T07:35:59;45.43;;;29.47;;
1699;SDS011;847;48.058;7.810;2022-12-10T07:38:28;47.17;;;27.08;;
1699;SDS011;847;48.058;7.810;2022-12-10T07:40:55;43.38;;;23.75;;
1699;SDS011;847;48.058;7.810;2022-12-10T07:43:22;42.40;;;24.15;;
1699;SDS011;847;48.058;7.810;2022-12-10T07:45:51;50.83;;;25.27;;
1699;SDS011;847;48.058;7.810;2022-12-10T07:48:17;41.60;;;21.83;;
1699;SDS011;847;48.058;7.810;2022-12-10T07:50:44;43.67;;;23.57;;
1699;SDS011;847;48.058;7.810;2022-12-10T07:53:11;44.70;;;22.83;;
1699;SDS011;847;48.058;7.810;2022-12-10T07:55:38;38.53;;;24.00;;
1699;SDS011;847;48.058;7.810;2022-12-10T07:58:04;48.67;;;23.90;;
1699;SDS011;847;48.058;7.810;2022-12-10T08:00:31;43.47;;;23.65;;
1699;SDS011;847;48.058;7.810;2022-12-10T08:02:59;45.28;;;23.08;;
1699;SDS011;847;48.058;7.810;2022-12-10T08:05:26;47.00;;;24.00;;
1699;SDS011;847;48.058;7.810;2022-12-10T08:07:53;43.90;;;24.50;;
1699;SDS011;847;48.058;7.810;2022-12-10T08:10:19;45.43;;;23.17;;
1699;SDS011;847;48.058;7.810;2022-12-10T08:12:46;47.63;;;24.33;;
1699;SDS011;847;48.058;7.810;2022-12-10T08:15:13;44.37;;;22.77;;
1699;SDS011;847;48.058;7.810;2022-12-10T08:17:40;42.97;;;23.80;;
1699;SDS011;847;48.058;7.810;2022-12-10T08:20:08;48.10;;;24.27;;
1699;SDS011;847;48.058;7.810;2022-12-10T08:22:36;46.50;;;23.57;;
1699;SDS011;847;48.058;7.810;2022-12-10T08:25:04;46.10;;;23.70;;
1699;SDS011;847;48.058;7.810;2022-12-10T08:27:31;52.40;;;29.47;;
1699;SDS011;847;48.058;7.810;2022-12-10T08:29:58;53.17;;;26.63;;
1699;SDS011;847;48.058;7.810;2022-12-10T08:32:25;49.50;;;24.83;;
1699;SDS011;847;48.058;7.810;2022-12-10T08:34:52;47.43;;;24.93;;
1699;SDS011;847;48.058;7.810;2022-12-10T08:37:20;45.93;;;25.50;;
1699;SDS011;847;48.058;7.810;2022-12-10T08:39:47;47.93;;;26.37;;
1699;SDS011;847;48.058;7.810;2022-12-10T08:42:14;48.20;;;26.93;;
1699;SDS011;847;48.058;7.810;2022-12-10T08:44:41;50.10;;;25.53;;
1699;SDS011;847;48.058;7.810;2022-12-10T08:47:08;46.40;;;23.27;;
1699;SDS011;847;48.058;7.810;2022-12-10T08:49:35;45.73;;;23.83;;
1699;SDS011;847;48.058;7.810;2022-12-10T08:52:02;52.93;;;23.97;;
1699;SDS011;847;48.058;7.810;2022-12-10T08:54:30;43.57;;;23.87;;
1699;SDS011;847;48.058;7.810;2022-12-10T08:56:57;53.60;;;26.53;;
1699;SDS011;847;48.058;7.810;2022-12-10T08:59:24;41.87;;;24.50;;
1699;SDS011;847;48.058;7.810;2022-12-10T09:01:51;48.47;;;25.57;;
1699;SDS011;847;48.058;7.810;2022-12-10T09:04:18;44.30;;;24.23;;
1699;SDS011;847;48.058;7.810;2022-12-10T09:06:44;44.97;;;25.00;;
1699;SDS011;847;48.058;7.810;2022-12-10T09:09:11;51.70;;;26.63;;
1699;SDS011;847;48.058;7.810;2022-12-10T09:11:39;54.50;;;27.80;;
1699;SDS011;847;48.058;7.810;2022-12-10T09:14:06;43.90;;;25.87;;
1699;SDS011;847;48.058;7.810;2022-12-10T09:16:34;45.90;;;24.97;;
1699;SDS011;847;48.058;7.810;2022-12-10T09:19:04;49.13;;;26.40;;
1699;SDS011;847;48.058;7.810;2022-12-10T09:21:31;38.97;;;24.77;;
1699;SDS011;847;48.058;7.810;2022-12-10T09:23:58;48.23;;;24.60;;
1699;SDS011;847;48.058;7.810;2022-12-10T09:26:26;51.50;;;27.00;;
1699;SDS011;847;48.058;7.810;2022-12-10T09:28:54;50.97;;;27.70;;
1699;SDS011;847;48.058;7.810;2022-12-10T09:31:22;49.70;;;27.03;;
1699;SDS011;847;48.058;7.810;2022-12-10T09:33:50;60.47;;;28.07;;
1699;SDS011;847;48.058;7.810;2022-12-10T09:36:18;62.13;;;30.47;;
1699;SDS011;847;48.058;7.810;2022-12-10T09:38:46;61.50;;;29.73;;
1699;SDS011;847;48.058;7.810;2022-12-10T09:41:18;55.93;;;29.33;;
1699;SDS011;847;48.058;7.810;2022-12-10T09:43:57;56.67;;;29.97;;
1699;SDS011;847;48.058;7.810;2022-12-10T09:46:31;48.95;;;25.25;;
1699;SDS011;847;48.058;7.810;2022-12-10T09:49:11;53.57;;;26.90;;
1699;SDS011;847;48.058;7.810;2022-12-10T09:51:44;56.27;;;28.90;;
1699;SDS011;847;48.058;7.810;2022-12-10T09:54:12;58.27;;;30.63;;
1699;SDS011;847;48.058;7.810;2022-12-10T09:56:44;50.50;;;29.37;;
1699;SDS011;847;48.058;7.810;2022-12-10T09:59:15;51.17;;;26.20;;
1699;SDS011;847;48.058;7.810;2022-12-10T10:01:45;49.10;;;26.67;;
1699;SDS011;847;48.058;7.810;2022-12-10T10:04:13;55.00;;;28.43;;
1699;SDS011;847;48.058;7.810;2022-12-10T10:06:40;51.73;;;24.40;;
1699;SDS011;847;48.058;7.810;2022-12-10T10:09:09;50.55;;;25.80;;
1699;SDS011;847;48.058;7.810;2022-12-10T10:11:40;49.07;;;26.90;;
1699;SDS011;847;48.058;7.810;2022-12-10T10:14:09;50.97;;;26.57;;
1699;SDS011;847;48.058;7.810;2022-12-10T10:16:42;44.70;;;25.33;;
1699;SDS011;847;48.058;7.810;2022-12-10T10:19:13;47.17;;;25.80;;
1699;SDS011;847;48.058;7.810;2022-12-10T10:21:42;54.50;;;27.17;;
1699;SDS011;847;48.058;7.810;2022-12-10T10:24:12;47.67;;;27.63;;
1699;SDS011;847;48.058;7.810;2022-12-10T10:26:41;52.40;;;26.97;;
1699;SDS011;847;48.058;7.810;2022-12-10T10:29:09;55.03;;;29.43;;
1699;SDS011;847;48.058;7.810;2022-12-10T10:31:38;75.57;;;34.30;;
1699;SDS011;847;48.058;7.810;2022-12-10T10:34:16;57.10;;;31.53;;
1699;SDS011;847;48.058;7.810;2022-12-10T10:36:45;46.33;;;24.93;;
1699;SDS011;847;48.058;7.810;2022-12-10T10:39:18;47.83;;;25.43;;
1699;SDS011;847;48.058;7.810;2022-12-10T10:41:53;41.58;;;21.65;;
1699;SDS011;847;48.058;7.810;2022-12-10T10:44:21;40.03;;;22.02;;
1699;SDS011;847;48.058;7.810;2022-12-10T10:46:51;47.53;;;24.27;;
1699;SDS011;847;48.058;7.810;2022-12-10T10:49:21;43.00;;;23.67;;
1699;SDS011;847;48.058;7.810;2022-12-10T10:51:50;41.57;;;22.80;;
1699;SDS011;847;48.058;7.810;2022-12-10T10:54:30;44.30;;;23.47;;
1699;SDS011;847;48.058;7.810;2022-12-10T10:57:00;43.05;;;21.95;;
1699;SDS011;847;48.058;7.810;2022-12-10T10:59:29;43.97;;;24.07;;
1699;SDS011;847;48.058;7.810;2022-12-10T11:01:58;44.23;;;23.97;;
1699;SDS011;847;48.058;7.810;2022-12-10T11:04:37;43.95;;;24.10;;
1699;SDS011;847;48.058;7.810;2022-12-10T11:07:13;47.63;;;26.40;;
1699;SDS011;847;48.058;7.810;2022-12-10T11:09:47;47.78;;;27.27;;
1699;SDS011;847;48.058;7.810;2022-12-10T11:12:33;51.53;;;27.85;;
1699;SDS011;847;48.058;7.810;2022-12-10T11:15:21;50.47;;;27.67;;
1699;SDS011;847;48.058;7.810;2022-12-10T11:17:58;51.97;;;31.13;;
1699;SDS011;847;48.058;7.810;2022-12-10T11:20:27;53.97;;;30.97;;
1699;SDS011;847;48.058;7.810;2022-12-10T11:22:57;56.80;;;29.83;;
1699;SDS011;847;48.058;7.810;2022-12-10T11:25:29;69.90;;;40.23;;
1699;SDS011;847;48.058;7.810;2022-12-10T11:28:12;60.53;;;33.40;;
1699;SDS011;847;48.058;7.810;2022-12-10T11:30:51;79.70;;;36.40;;
1699;SDS011;847;48.058;7.810;2022-12-10T11:33:27;55.60;;;29.90;;
1699;SDS011;847;48.058;7.810;2022-12-10T11:36:10;54.77;;;30.43;;
1699;SDS011;847;48.058;7.810;2022-12-10T11:38:50;48.57;;;25.63;;
1699;SDS011;847;48.058;7.810;2022-12-10T11:41:24;57.53;;;30.70;;
1699;SDS011;847;48.058;7.810;2022-12-10T11:44:16;49.90;;;27.53;;
1699;SDS011;847;48.058;7.810;2022-12-10T11:47:01;46.43;;;26.17;;
1699;SDS011;847;48.058;7.810;2022-12-10T11:49:47;47.73;;;27.70;;
1699;SDS011;847;48.058;7.810;2022-12-10T11:52:33;44.97;;;25.43;;
1699;SDS011;847;48.058;7.810;2022-12-10T11:55:13;48.88;;;24.90;;
1699;SDS011;847;48.058;7.810;2022-12-10T11:57:52;42.37;;;24.50;;
1699;SDS011;847;48.058;7.810;2022-12-10T12:00:30;47.20;;;26.90;;
1699;SDS011;847;48.058;7.810;2022-12-10T12:06:04;47.27;;;26.83;;
1699;SDS011;847;48.058;7.810;2022-12-10T12:08:49;43.80;;;25.30;;
1699;SDS011;847;48.058;7.810;2022-12-10T12:11:25;46.20;;;26.43;;
1699;SDS011;847;48.058;7.810;2022-12-10T12:14:01;42.90;;;26.37;;
1699;SDS011;847;48.058;7.810;2022-12-10T12:16:34;47.47;;;25.07;;
1699;SDS011;847;48.058;7.810;2022-12-10T12:19:09;43.53;;;25.17;;
1699;SDS011;847;48.058;7.810;2022-12-10T12:21:40;51.13;;;32.33;;
1699;SDS011;847;48.058;7.810;2022-12-10T12:24:12;53.00;;;30.50;;
1699;SDS011;847;48.058;7.810;2022-12-10T12:26:45;59.60;;;36.77;;
1699;SDS011;847;48.058;7.810;2022-12-10T12:29:18;45.37;;;25.83;;
1699;SDS011;847;48.058;7.810;2022-12-10T12:31:53;55.20;;;32.90;;
1699;SDS011;847;48.058;7.810;2022-12-10T12:34:24;50.00;;;29.07;;
1699;SDS011;847;48.058;7.810;2022-12-10T12:36:54;43.30;;;24.43;;
1699;SDS011;847;48.058;7.810;2022-12-10T12:39:27;46.23;;;24.47;;
1699;SDS011;847;48.058;7.810;2022-12-10T12:42:06;46.57;;;27.57;;
1699;SDS011;847;48.058;7.810;2022-12-10T12:44:41;39.97;;;23.90;;
1699;SDS011;847;48.058;7.810;2022-12-10T12:47:16;59.53;;;25.97;;
1699;SDS011;847;48.058;7.810;2022-12-10T12:49:51;42.57;;;22.20;;
1699;SDS011;847;48.058;7.810;2022-12-10T12:52:23;45.87;;;24.50;;
1699;SDS011;847;48.058;7.810;2022-12-10T12:54:59;43.30;;;22.40;;
1699;SDS011;847;48.058;7.810;2022-12-10T12:57:32;37.80;;;21.60;;
1699;SDS011;847;48.058;7.810;2022-12-10T13:00:03;42.78;;;25.20;;
1699;SDS011;847;48.058;7.810;2022-12-10T13:02:46;39.80;;;22.83;;
1699;SDS011;847;48.058;7.810;2022-12-10T13:05:21;40.60;;;25.53;;
1699;SDS011;847;48.058;7.810;2022-12-10T13:10:58;42.30;;;24.23;;
1699;SDS011;847;48.058;7.810;2022-12-10T13:13:41;35.63;;;21.87;;
1699;SDS011;847;48.058;7.810;2022-12-10T13:16:44;43.83;;;23.67;;
1699;SDS011;847;48.058;7.810;2022-12-10T13:19:25;46.80;;;26.60;;
1699;SDS011;847;48.058;7.810;2022-12-10T13:21:57;38.20;;;24.00;;
1699;SDS011;847;48.058;7.810;2022-12-10T13:24:44;44.47;;;23.10;;
1699;SDS011;847;48.058;7.810;2022-12-10T13:27:17;42.30;;;23.80;;
1699;SDS011;847;48.058;7.810;2022-12-10T13:29:56;41.63;;;24.67;;
1699;SDS011;847;48.058;7.810;2022-12-10T13:35:18;46.37;;;27.33;;
1699;SDS011;847;48.058;7.810;2022-12-10T13:37:54;41.07;;;26.17;;
1699;SDS011;847;48.058;7.810;2022-12-10T13:40:25;42.30;;;24.60;;
1699;SDS011;847;48.058;7.810;2022-12-10T13:42:58;42.67;;;24.20;;
1699;SDS011;847;48.058;7.810;2022-12-10T13:46:23;40.40;;;23.23;;
1699;SDS011;847;48.058;7.810;2022-12-10T13:49:00;41.30;;;24.57;;
1699;SDS011;847;48.058;7.810;2022-12-10T13:51:47;38.97;;;22.77;;
1699;SDS011;847;48.058;7.810;2022-12-10T13:54:24;35.17;;;22.00;;
1699;SDS011;847;48.058;7.810;2022-12-10T13:57:20;38.37;;;20.70;;
1699;SDS011;847;48.058;7.810;2022-12-10T14:00:00;39.63;;;23.57;;
1699;SDS011;847;48.058;7.810;2022-12-10T14:05:41;43.47;;;23.93;;
1699;SDS011;847;48.058;7.810;2022-12-10T14:08:27;44.23;;;25.53;;
1699;SDS011;847;48.058;7.810;2022-12-10T14:10:57;42.60;;;25.93;;
1699;SDS011;847;48.058;7.810;2022-12-10T14:13:31;37.50;;;22.48;;
1699;SDS011;847;48.058;7.810;2022-12-10T14:16:04;47.07;;;26.77;;
1699;SDS011;847;48.058;7.810;2022-12-10T14:18:36;41.23;;;26.13;;
1699;SDS011;847;48.058;7.810;2022-12-10T14:21:05;37.93;;;23.33;;
1699;SDS011;847;48.058;7.810;2022-12-10T14:23:34;40.70;;;24.17;;
1699;SDS011;847;48.058;7.810;2022-12-10T14:26:06;40.47;;;24.60;;
1699;SDS011;847;48.058;7.810;2022-12-10T14:28:38;34.67;;;21.80;;
1699;SDS011;847;48.058;7.810;2022-12-10T14:31:10;42.67;;;23.57;;
1699;SDS011;847;48.058;7.810;2022-12-10T14:33:41;38.57;;;22.27;;
1699;SDS011;847;48.058;7.810;2022-12-10T14:36:14;35.30;;;21.67;;
1699;SDS011;847;48.058;7.810;2022-12-10T14:38:45;33.43;;;20.30;;
1699;SDS011;847;48.058;7.810;2022-12-10T14:41:13;36.90;;;21.13;;
1699;SDS011;847;48.058;7.810;2022-12-10T14:43:45;38.47;;;22.00;;
1699;SDS011;847;48.058;7.810;2022-12-10T14:46:14;37.07;;;23.00;;
1699;SDS011;847;48.058;7.810;2022-12-10T14:48:48;35.90;;;19.67;;
1699;SDS011;847;48.058;7.810;2022-12-10T14:51:17;33.17;;;21.40;;
1699;SDS011;847;48.058;7.810;2022-12-10T14:53:45;38.20;;;23.27;;
1699;SDS011;847;48.058;7.810;2022-12-10T14:56:15;34.73;;;21.80;;
1699;SDS011;847;48.058;7.810;2022-12-10T14:58:47;34.53;;;21.67;;
1699;SDS011;847;48.058;7.810;2022-12-10T15:01:22;36.20;;;22.00;;
1699;SDS011;847;48.058;7.810;2022-12-10T15:03:53;34.23;;;22.13;;
1699;SDS011;847;48.058;7.810;2022-12-10T15:06:22;37.38;;;22.35;;
1699;SDS011;847;48.058;7.810;2022-12-10T15:08:49;34.03;;;21.07;;
1699;SDS011;847;48.058;7.810;2022-12-10T15:11:20;34.70;;;21.50;;
1699;SDS011;847;48.058;7.810;2022-12-10T15:13:48;37.70;;;22.90;;
1699;SDS011;847;48.058;7.810;2022-12-10T15:16:28;32.70;;;21.50;;
1699;SDS011;847;48.058;7.810;2022-12-10T15:19:08;35.03;;;21.83;;
1699;SDS011;847;48.058;7.810;2022-12-10T15:21:44;37.80;;;23.80;;
1699;SDS011;847;48.058;7.810;2022-12-10T15:24:16;38.17;;;22.40;;
1699;SDS011;847;48.058;7.810;2022-12-10T15:26:45;37.78;;;22.23;;
1699;SDS011;847;48.058;7.810;2022-12-10T15:29:15;39.13;;;23.15;;
1699;SDS011;847;48.058;7.810;2022-12-10T15:32:08;35.67;;;22.30;;
1699;SDS011;847;48.058;7.810;2022-12-10T15:34:41;37.38;;;21.65;;